sensor_id;sensor_type;location;lat;lon;timestamp;pressure;altitude;pressure_sealevel;temperature;humidity
9474;BME280;8865;47.636;7.692;2023-11-19T00:01:42;98579.38;;;7.70;100.00
9474;BME280;8865;47.636;7.692;2023-11-19T00:04:08;98580.00;;;7.74;100.00
9474;BME280;8865;47.636;7.692;2023-11-19T00:06:34;98575.22;;;7.80;100.00
9474;BME280;8865;47.636;7.692;2023-11-19T00:09:00;98570.81;;;7.81;100.00
9474;BME280;8865;47.636;7.692;2023-11-19T00:11:26;98571.63;;;7.81;100.00
9474;BME280;8865;47.636;7.692;2023-11-19T00:13:52;98568.09;;;7.82;100.00
9474;BME280;8865;47.636;7.692;2023-11-19T00:16:18;98576.13;;;7.79;100.00
9474;BME280;8865;47.636;7.692;2023-11-19T00:18:43;98570.72;;;7.82;100.00
9474;BME280;8865;47.636;7.692;2023-11-19T00:21:09;98544.84;;;7.79;100.00
9474;BME280;8865;47.636;7.692;2023-11-19T00:23:36;98556.94;;;7.80;100.00
9474;BME280;8865;47.636;7.692;2023-11-19T00:26:05;98540.13;;;7.84;100.00
9474;BME280;8865;47.636;7.692;2023-11-19T00:28:32;98549.84;;;7.82;100.00
9474;BME280;8865;47.636;7.692;2023-11-19T00:30:59;98542.19;;;7.92;100.00
9474;BME280;8865;47.636;7.692;2023-11-19T00:33:25;98526.16;;;7.85;100.00
9474;BME280;8865;47.636;7.692;2023-11-19T00:35:51;98521.44;;;7.91;100.00
9474;BME280;8865;47.636;7.692;2023-11-19T00:38:17;98529.25;;;7.91;100.00
9474;BME280;8865;47.636;7.692;2023-11-19T00:40:43;98532.41;;;7.96;100.00
9474;BME280;8865;47.636;7.692;2023-11-19T00:43:10;98515.06;;;7.95;100.00
9474;BME280;8865;47.636;7.692;2023-11-19T00:45:36;98521.13;;;7.95;100.00
9474;BME280;8865;47.636;7.692;2023-11-19T00:48:02;98516.88;;;7.94;100.00
9474;BME280;8865;47.636;7.692;2023-11-19T00:50:28;98518.63;;;7.94;100.00
9474;BME280;8865;47.636;7.692;2023-11-19T00:52:55;98525.94;;;7.89;100.00
9474;BME280;8865;47.636;7.692;2023-11-19T00:55:21;98526.66;;;7.91;100.00
9474;BME280;8865;47.636;7.692;2023-11-19T00:57:47;98539.69;;;7.91;100.00
9474;BME280;8865;47.636;7.692;2023-11-19T01:00:13;98518.50;;;7.95;100.00
9474;BME280;8865;47.636;7.692;2023-11-19T01:02:46;98529.78;;;7.96;100.00
9474;BME280;8865;47.636;7.692;2023-11-19T01:05:15;98520.78;;;8.00;100.00
9474;BME280;8865;47.636;7.692;2023-11-19T01:07:41;98510.13;;;8.03;100.00
9474;BME280;8865;47.636;7.692;2023-11-19T01:10:07;98499.91;;;8.00;100.00
9474;BME280;8865;47.636;7.692;2023-11-19T01:12:34;98494.59;;;8.01;100.00
9474;BME280;8865;47.636;7.692;2023-11-19T01:15:00;98490.94;;;8.04;100.00
9474;BME280;8865;47.636;7.692;2023-11-19T01:17:26;98492.41;;;8.08;100.00
9474;BME280;8865;47.636;7.692;2023-11-19T01:19:52;98483.50;;;8.11;100.00
9474;BME280;8865;47.636;7.692;2023-11-19T01:22:18;98486.22;;;8.09;100.00
9474;BME280;8865;47.636;7.692;2023-11-19T01:24:44;98478.06;;;8.14;100.00
9474;BME280;8865;47.636;7.692;2023-11-19T01:27:10;98456.22;;;8.03;100.00
9474;BME280;8865;47.636;7.692;2023-11-19T01:29:36;98463.69;;;8.08;100.00
9474;BME280;8865;47.636;7.692;2023-11-19T01:32:04;98459.19;;;8.10;100.00
9474;BME280;8865;47.636;7.692;2023-11-19T01:34:30;98445.44;;;8.08;100.00
9474;BME280;8865;47.636;7.692;2023-11-19T01:36:56;98461.81;;;8.10;100.00
9474;BME280;8865;47.636;7.692;2023-11-19T01:39:22;98475.34;;;8.15;100.00
9474;BME280;8865;47.636;7.692;2023-11-19T01:41:48;98462.81;;;8.20;100.00
9474;BME280;8865;47.636;7.692;2023-11-19T01:44:14;98458.84;;;8.15;100.00
9474;BME280;8865;47.636;7.692;2023-11-19T01:46:41;98464.44;;;8.21;100.00
9474;BME280;8865;47.636;7.692;2023-11-19T01:49:07;98452.59;;;8.17;100.00
9474;BME280;8865;47.636;7.692;2023-11-19T01:51:34;98457.47;;;8.22;100.00
9474;BME280;8865;47.636;7.692;2023-11-19T01:54:01;98459.00;;;8.25;100.00
9474;BME280;8865;47.636;7.692;2023-11-19T01:56:27;98466.50;;;8.29;100.00
9474;BME280;8865;47.636;7.692;2023-11-19T01:58:55;98458.97;;;8.37;100.00
9474;BME280;8865;47.636;7.692;2023-11-19T02:01:21;98464.88;;;8.39;100.00
9474;BME280;8865;47.636;7.692;2023-11-19T02:03:48;98473.84;;;8.48;100.00
9474;BME280;8865;47.636;7.692;2023-11-19T02:06:14;98469.56;;;8.47;100.00
9474;BME280;8865;47.636;7.692;2023-11-19T02:08:41;98473.75;;;8.50;100.00
9474;BME280;8865;47.636;7.692;2023-11-19T02:11:07;98475.31;;;8.52;100.00
9474;BME280;8865;47.636;7.692;2023-11-19T02:13:33;98480.19;;;8.57;100.00
9474;BME280;8865;47.636;7.692;2023-11-19T02:16:02;98481.00;;;8.57;100.00
9474;BME280;8865;47.636;7.692;2023-11-19T02:18:29;98483.72;;;8.56;100.00
9474;BME280;8865;47.636;7.692;2023-11-19T02:20:59;98475.19;;;8.54;100.00
9474;BME280;8865;47.636;7.692;2023-11-19T02:23:28;98467.25;;;8.55;100.00
9474;BME280;8865;47.636;7.692;2023-11-19T02:26:29;98457.63;;;8.56;100.00
9474;BME280;8865;47.636;7.692;2023-11-19T02:28:59;98459.28;;;8.57;100.00
9474;BME280;8865;47.636;7.692;2023-11-19T02:31:25;98448.13;;;8.55;100.00
9474;BME280;8865;47.636;7.692;2023-11-19T02:33:53;98446.13;;;8.58;100.00
9474;BME280;8865;47.636;7.692;2023-11-19T02:36:19;98449.78;;;8.56;100.00
9474;BME280;8865;47.636;7.692;2023-11-19T02:38:45;98449.69;;;8.57;100.00
9474;BME280;8865;47.636;7.692;2023-11-19T02:41:11;98449.91;;;8.54;100.00
9474;BME280;8865;47.636;7.692;2023-11-19T02:43:37;98439.47;;;8.54;100.00
9474;BME280;8865;47.636;7.692;2023-11-19T02:46:04;98446.13;;;8.58;100.00
9474;BME280;8865;47.636;7.692;2023-11-19T02:48:35;98438.75;;;8.52;100.00
9474;BME280;8865;47.636;7.692;2023-11-19T02:51:04;98443.63;;;8.57;100.00
9474;BME280;8865;47.636;7.692;2023-11-19T02:53:30;98438.28;;;8.58;100.00
9474;BME280;8865;47.636;7.692;2023-11-19T02:55:57;98449.44;;;8.61;100.00
9474;BME280;8865;47.636;7.692;2023-11-19T02:58:32;98449.81;;;8.67;100.00
9474;BME280;8865;47.636;7.692;2023-11-19T03:00:58;98456.59;;;8.70;100.00
9474;BME280;8865;47.636;7.692;2023-11-19T03:03:25;98454.69;;;8.72;100.00
9474;BME280;8865;47.636;7.692;2023-11-19T03:05:59;98453.97;;;8.70;100.00
9474;BME280;8865;47.636;7.692;2023-11-19T03:08:26;98451.94;;;8.73;100.00
9474;BME280;8865;47.636;7.692;2023-11-19T03:10:52;98454.44;;;8.75;100.00
9474;BME280;8865;47.636;7.692;2023-11-19T03:13:18;98444.34;;;8.70;100.00
9474;BME280;8865;47.636;7.692;2023-11-19T03:15:44;98438.78;;;8.75;100.00
9474;BME280;8865;47.636;7.692;2023-11-19T03:18:10;98446.38;;;8.78;100.00
9474;BME280;8865;47.636;7.692;2023-11-19T03:20:36;98442.84;;;8.79;100.00
9474;BME280;8865;47.636;7.692;2023-11-19T03:23:02;98453.03;;;8.82;100.00
9474;BME280;8865;47.636;7.692;2023-11-19T03:25:28;98460.88;;;8.82;100.00
9474;BME280;8865;47.636;7.692;2023-11-19T03:28:00;98453.88;;;8.83;100.00
9474;BME280;8865;47.636;7.692;2023-11-19T03:30:27;98449.50;;;8.83;100.00
9474;BME280;8865;47.636;7.692;2023-11-19T03:32:57;98452.69;;;8.87;100.00
9474;BME280;8865;47.636;7.692;2023-11-19T03:35:24;98457.81;;;8.88;100.00
9474;BME280;8865;47.636;7.692;2023-11-19T03:37:50;98462.91;;;8.90;100.00
9474;BME280;8865;47.636;7.692;2023-11-19T03:40:17;98462.78;;;8.91;100.00
9474;BME280;8865;47.636;7.692;2023-11-19T03:42:47;98456.75;;;8.91;100.00
9474;BME280;8865;47.636;7.692;2023-11-19T03:45:13;98452.34;;;8.91;100.00
9474;BME280;8865;47.636;7.692;2023-11-19T03:47:41;98456.41;;;8.96;100.00
9474;BME280;8865;47.636;7.692;2023-11-19T03:50:07;98455.66;;;8.93;100.00
9474;BME280;8865;47.636;7.692;2023-11-19T03:52:36;98456.97;;;8.88;100.00
9474;BME280;8865;47.636;7.692;2023-11-19T03:55:02;98456.63;;;8.92;100.00
9474;BME280;8865;47.636;7.692;2023-11-19T03:57:31;98465.28;;;8.93;100.00
9474;BME280;8865;47.636;7.692;2023-11-19T03:59:57;98472.19;;;8.94;100.00
9474;BME280;8865;47.636;7.692;2023-11-19T04:02:24;98472.19;;;8.94;100.00
9474;BME280;8865;47.636;7.692;2023-11-19T04:04:54;98471.56;;;8.90;100.00
9474;BME280;8865;47.636;7.692;2023-11-19T04:07:21;98470.50;;;8.93;100.00
9474;BME280;8865;47.636;7.692;2023-11-19T04:09:47;98481.78;;;8.93;100.00
9474;BME280;8865;47.636;7.692;2023-11-19T04:12:12;98488.44;;;8.98;100.00
9474;BME280;8865;47.636;7.692;2023-11-19T04:14:38;98480.97;;;9.04;100.00
9474;BME280;8865;47.636;7.692;2023-11-19T04:17:04;98478.34;;;8.93;100.00
9474;BME280;8865;47.636;7.692;2023-11-19T04:19:30;98475.63;;;8.94;100.00
9474;BME280;8865;47.636;7.692;2023-11-19T04:21:58;98475.75;;;8.93;100.00
9474;BME280;8865;47.636;7.692;2023-11-19T04:24:24;98467.44;;;8.99;100.00
9474;BME280;8865;47.636;7.692;2023-11-19T04:26:50;98474.94;;;9.04;100.00
9474;BME280;8865;47.636;7.692;2023-11-19T04:29:16;98475.63;;;9.06;100.00
9474;BME280;8865;47.636;7.692;2023-11-19T04:31:46;98474.09;;;9.15;100.00
9474;BME280;8865;47.636;7.692;2023-11-19T04:34:12;98477.19;;;9.08;100.00
9474;BME280;8865;47.636;7.692;2023-11-19T04:36:38;98472.06;;;9.07;100.00
9474;BME280;8865;47.636;7.692;2023-11-19T04:39:04;98470.06;;;9.10;100.00
9474;BME280;8865;47.636;7.692;2023-11-19T04:41:48;98469.47;;;9.18;100.00
9474;BME280;8865;47.636;7.692;2023-11-19T04:44:15;98474.91;;;9.15;100.00
9474;BME280;8865;47.636;7.692;2023-11-19T04:46:42;98482.41;;;9.20;100.00
9474;BME280;8865;47.636;7.692;2023-11-19T04:49:12;98472.53;;;9.12;100.00
9474;BME280;8865;47.636;7.692;2023-11-19T04:51:42;98475.38;;;9.09;100.00
9474;BME280;8865;47.636;7.692;2023-11-19T04:54:09;98476.84;;;9.13;100.00
9474;BME280;8865;47.636;7.692;2023-11-19T04:56:36;98483.97;;;9.22;100.00
9474;BME280;8865;47.636;7.692;2023-11-19T04:59:04;98480.88;;;9.28;100.00
9474;BME280;8865;47.636;7.692;2023-11-19T05:01:32;98484.06;;;9.32;100.00
9474;BME280;8865;47.636;7.692;2023-11-19T05:03:58;98490.50;;;9.28;100.00
9474;BME280;8865;47.636;7.692;2023-11-19T05:06:28;98488.38;;;9.33;100.00
9474;BME280;8865;47.636;7.692;2023-11-19T05:08:56;98486.44;;;9.35;100.00
9474;BME280;8865;47.636;7.692;2023-11-19T05:11:22;98487.88;;;9.39;100.00
9474;BME280;8865;47.636;7.692;2023-11-19T05:13:48;98489.53;;;9.29;100.00
9474;BME280;8865;47.636;7.692;2023-11-19T05:16:14;98492.53;;;9.36;100.00
9474;BME280;8865;47.636;7.692;2023-11-19T05:18:41;98487.66;;;9.31;100.00
9474;BME280;8865;47.636;7.692;2023-11-19T05:21:07;98491.78;;;9.34;100.00
9474;BME280;8865;47.636;7.692;2023-11-19T05:23:33;98501.06;;;9.38;100.00
9474;BME280;8865;47.636;7.692;2023-11-19T05:26:01;98495.50;;;9.42;100.00
9474;BME280;8865;47.636;7.692;2023-11-19T05:28:27;98490.72;;;9.47;100.00
9474;BME280;8865;47.636;7.692;2023-11-19T05:30:53;98480.06;;;9.51;100.00
9474;BME280;8865;47.636;7.692;2023-11-19T05:33:19;98489.19;;;9.56;100.00
9474;BME280;8865;47.636;7.692;2023-11-19T05:35:45;98486.44;;;9.58;100.00
9474;BME280;8865;47.636;7.692;2023-11-19T05:38:11;98489.19;;;9.56;100.00
9474;BME280;8865;47.636;7.692;2023-11-19T05:40:37;98493.59;;;9.56;100.00
9474;BME280;8865;47.636;7.692;2023-11-19T05:43:04;98491.81;;;9.56;100.00
9474;BME280;8865;47.636;7.692;2023-11-19T05:45:31;98493.69;;;9.65;100.00
9474;BME280;8865;47.636;7.692;2023-11-19T05:47:57;98492.38;;;9.71;100.00
9474;BME280;8865;47.636;7.692;2023-11-19T05:50:24;98492.16;;;9.74;100.00
9474;BME280;8865;47.636;7.692;2023-11-19T05:52:50;98482.75;;;9.72;100.00
9474;BME280;8865;47.636;7.692;2023-11-19T05:55:16;98487.75;;;9.75;100.00
9474;BME280;8865;47.636;7.692;2023-11-19T05:57:42;98497.97;;;9.78;100.00
9474;BME280;8865;47.636;7.692;2023-11-19T06:00:09;98492.47;;;9.81;100.00
9474;BME280;8865;47.636;7.692;2023-11-19T06:02:36;98490.72;;;9.81;100.00
9474;BME280;8865;47.636;7.692;2023-11-19T06:05:04;98496.66;;;9.83;100.00
9474;BME280;8865;47.636;7.692;2023-11-19T06:07:33;98499.84;;;9.87;100.00
9474;BME280;8865;47.636;7.692;2023-11-19T06:10:00;98497.72;;;9.92;100.00
9474;BME280;8865;47.636;7.692;2023-11-19T06:12:26;98499.34;;;9.93;100.00
9474;BME280;8865;47.636;7.692;2023-11-19T06:14:53;98501.72;;;9.96;100.00
9474;BME280;8865;47.636;7.692;2023-11-19T06:17:19;98493.75;;;9.98;100.00
9474;BME280;8865;47.636;7.692;2023-11-19T06:19:45;98487.44;;;10.00;100.00
9474;BME280;8865;47.636;7.692;2023-11-19T06:22:11;98492.69;;;10.00;100.00
9474;BME280;8865;47.636;7.692;2023-11-19T06:24:37;98488.28;;;10.01;100.00
9474;BME280;8865;47.636;7.692;2023-11-19T06:27:03;98486.38;;;10.03;100.00
9474;BME280;8865;47.636;7.692;2023-11-19T06:29:30;98496.25;;;9.99;100.00
9474;BME280;8865;47.636;7.692;2023-11-19T06:31:56;98481.97;;;10.04;100.00
9474;BME280;8865;47.636;7.692;2023-11-19T06:34:22;98496.59;;;10.06;100.00
9474;BME280;8865;47.636;7.692;2023-11-19T06:36:48;98487.53;;;10.10;100.00
9474;BME280;8865;47.636;7.692;2023-11-19T06:39:14;98486.38;;;10.03;100.00
9474;BME280;8865;47.636;7.692;2023-11-19T06:41:47;98492.91;;;10.09;100.00
9474;BME280;8865;47.636;7.692;2023-11-19T06:44:13;98491.94;;;10.10;100.00
9474;BME280;8865;47.636;7.692;2023-11-19T06:46:39;98490.75;;;10.14;100.00
9474;BME280;8865;47.636;7.692;2023-11-19T06:49:05;98501.09;;;10.15;100.00
9474;BME280;8865;47.636;7.692;2023-11-19T06:51:34;98495.38;;;10.22;100.00
9474;BME280;8865;47.636;7.692;2023-11-19T06:54:00;98507.97;;;10.28;100.00
9474;BME280;8865;47.636;7.692;2023-11-19T06:56:26;98502.97;;;10.36;100.00
9474;BME280;8865;47.636;7.692;2023-11-19T06:58:52;98506.88;;;10.42;100.00
9474;BME280;8865;47.636;7.692;2023-11-19T07:01:19;98497.78;;;10.46;100.00
9474;BME280;8865;47.636;7.692;2023-11-19T07:03:46;98504.19;;;10.53;100.00
9474;BME280;8865;47.636;7.692;2023-11-19T07:06:12;98505.63;;;10.57;100.00
9474;BME280;8865;47.636;7.692;2023-11-19T07:08:41;98518.91;;;10.65;100.00
9474;BME280;8865;47.636;7.692;2023-11-19T07:11:11;98520.31;;;10.69;100.00
9474;BME280;8865;47.636;7.692;2023-11-19T07:13:37;98528.63;;;10.75;100.00
9474;BME280;8865;47.636;7.692;2023-11-19T07:16:04;98523.97;;;10.78;100.00
9474;BME280;8865;47.636;7.692;2023-11-19T07:18:30;98521.41;;;10.88;100.00
9474;BME280;8865;47.636;7.692;2023-11-19T07:20:58;98524.47;;;10.93;100.00
9474;BME280;8865;47.636;7.692;2023-11-19T07:23:25;98530.19;;;10.98;100.00
9474;BME280;8865;47.636;7.692;2023-11-19T07:25:51;98530.50;;;11.05;100.00
9474;BME280;8865;47.636;7.692;2023-11-19T07:28:19;98530.81;;;11.12;100.00
9474;BME280;8865;47.636;7.692;2023-11-19T07:30:45;98543.66;;;11.15;100.00
9474;BME280;8865;47.636;7.692;2023-11-19T07:33:11;98551.97;;;11.20;100.00
9474;BME280;8865;47.636;7.692;2023-11-19T07:35:39;98544.13;;;11.20;100.00
9474;BME280;8865;47.636;7.692;2023-11-19T07:38:08;98543.22;;;11.31;100.00
9474;BME280;8865;47.636;7.692;2023-11-19T07:40:34;98549.97;;;11.33;100.00
9474;BME280;8865;47.636;7.692;2023-11-19T07:43:00;98558.16;;;11.40;100.00
9474;BME280;8865;47.636;7.692;2023-11-19T07:45:26;98555.56;;;11.50;100.00
9474;BME280;8865;47.636;7.692;2023-11-19T07:47:53;98549.69;;;11.57;100.00
9474;BME280;8865;47.636;7.692;2023-11-19T07:50:20;98550.25;;;11.61;100.00
9474;BME280;8865;47.636;7.692;2023-11-19T07:52:46;98549.34;;;11.72;100.00
9474;BME280;8865;47.636;7.692;2023-11-19T07:55:12;98548.53;;;11.81;100.00
9474;BME280;8865;47.636;7.692;2023-11-19T07:57:38;98555.75;;;11.89;100.00
9474;BME280;8865;47.636;7.692;2023-11-19T08:00:05;98557.47;;;12.00;100.00
9474;BME280;8865;47.636;7.692;2023-11-19T08:02:31;98551.28;;;12.10;100.00
9474;BME280;8865;47.636;7.692;2023-11-19T08:04:57;98564.28;;;12.22;100.00
9474;BME280;8865;47.636;7.692;2023-11-19T08:07:23;98555.19;;;12.26;100.00
9474;BME280;8865;47.636;7.692;2023-11-19T08:09:49;98554.38;;;12.35;100.00
9474;BME280;8865;47.636;7.692;2023-11-19T08:12:15;98549.53;;;12.40;100.00
9474;BME280;8865;47.636;7.692;2023-11-19T08:14:43;98547.03;;;12.48;100.00
9474;BME280;8865;47.636;7.692;2023-11-19T08:17:09;98540.13;;;12.57;100.00
9474;BME280;8865;47.636;7.692;2023-11-19T08:19:36;98539.47;;;12.75;100.00
9474;BME280;8865;47.636;7.692;2023-11-19T08:22:02;98538.75;;;12.82;100.00
9474;BME280;8865;47.636;7.692;2023-11-19T08:24:28;98542.91;;;12.95;100.00
9474;BME280;8865;47.636;7.692;2023-11-19T08:26:54;98533.31;;;13.03;100.00
9474;BME280;8865;47.636;7.692;2023-11-19T08:29:20;98540.34;;;13.22;100.00
9474;BME280;8865;47.636;7.692;2023-11-19T08:31:47;98531.03;;;13.28;100.00
9474;BME280;8865;47.636;7.692;2023-11-19T08:34:13;98536.63;;;13.35;100.00
9474;BME280;8865;47.636;7.692;2023-11-19T08:36:39;98528.31;;;13.20;100.00
9474;BME280;8865;47.636;7.692;2023-11-19T08:39:05;98536.16;;;13.30;100.00
9474;BME280;8865;47.636;7.692;2023-11-19T08:41:30;98545.72;;;13.31;100.00
9474;BME280;8865;47.636;7.692;2023-11-19T08:43:56;98540.88;;;13.36;100.00
9474;BME280;8865;47.636;7.692;2023-11-19T08:46:22;98542.03;;;13.33;100.00
9474;BME280;8865;47.636;7.692;2023-11-19T08:48:48;98551.13;;;13.39;100.00
9474;BME280;8865;47.636;7.692;2023-11-19T08:51:14;98554.75;;;13.38;100.00
9474;BME280;8865;47.636;7.692;2023-11-19T08:53:40;98549.72;;;13.45;100.00
9474;BME280;8865;47.636;7.692;2023-11-19T08:56:09;98539.50;;;13.42;100.00
9474;BME280;8865;47.636;7.692;2023-11-19T08:58:35;98539.50;;;13.42;100.00
9474;BME280;8865;47.636;7.692;2023-11-19T09:01:01;98543.94;;;13.41;100.00
9474;BME280;8865;47.636;7.692;2023-11-19T09:03:27;98541.69;;;13.46;100.00
9474;BME280;8865;47.636;7.692;2023-11-19T09:05:56;98538.09;;;13.47;100.00
9474;BME280;8865;47.636;7.692;2023-11-19T09:08:22;98546.97;;;13.46;100.00
9474;BME280;8865;47.636;7.692;2023-11-19T09:10:48;98541.69;;;13.46;100.00
9474;BME280;8865;47.636;7.692;2023-11-19T09:13:14;98539.72;;;13.58;100.00
9474;BME280;8865;47.636;7.692;2023-11-19T09:15:40;98540.41;;;13.60;100.00
9474;BME280;8865;47.636;7.692;2023-11-19T09:18:08;98545.00;;;13.58;100.00
9474;BME280;8865;47.636;7.692;2023-11-19T09:20:34;98540.00;;;13.55;100.00
9474;BME280;8865;47.636;7.692;2023-11-19T09:23:07;98545.84;;;13.49;100.00
9474;BME280;8865;47.636;7.692;2023-11-19T09:25:34;98547.97;;;13.35;100.00
9474;BME280;8865;47.636;7.692;2023-11-19T09:28:00;98547.53;;;13.40;100.00
9474;BME280;8865;47.636;7.692;2023-11-19T09:30:26;98542.56;;;13.37;100.00
9474;BME280;8865;47.636;7.692;2023-11-19T09:32:52;98550.69;;;13.44;100.00
9474;BME280;8865;47.636;7.692;2023-11-19T09:35:18;98553.19;;;13.45;100.00
9474;BME280;8865;47.636;7.692;2023-11-19T09:37:45;98553.91;;;13.37;100.00
9474;BME280;8865;47.636;7.692;2023-11-19T09:40:10;98545.56;;;13.42;100.00
9474;BME280;8865;47.636;7.692;2023-11-19T09:42:44;98550.56;;;13.45;100.00
9474;BME280;8865;47.636;7.692;2023-11-19T09:45:16;98559.44;;;13.44;100.00
9474;BME280;8865;47.636;7.692;2023-11-19T09:47:44;98565.28;;;13.38;100.00
9474;BME280;8865;47.636;7.692;2023-11-19T09:50:18;98570.53;;;13.38;100.00
9474;BME280;8865;47.636;7.692;2023-11-19T09:52:45;98573.59;;;13.33;100.00
9474;BME280;8865;47.636;7.692;2023-11-19T09:55:11;98568.44;;;13.32;100.00
9474;BME280;8865;47.636;7.692;2023-11-19T09:57:39;98565.81;;;13.32;100.00
9474;BME280;8865;47.636;7.692;2023-11-19T10:00:06;98562.19;;;13.33;100.00
9474;BME280;8865;47.636;7.692;2023-11-19T10:02:33;98566.38;;;13.35;100.00
9474;BME280;8865;47.636;7.692;2023-11-19T10:05:04;98568.72;;;13.38;100.00
9474;BME280;8865;47.636;7.692;2023-11-19T10:07:32;98570.78;;;13.45;100.00
9474;BME280;8865;47.636;7.692;2023-11-19T10:10:02;98567.88;;;13.48;100.00
9474;BME280;8865;47.636;7.692;2023-11-19T10:12:30;98570.75;;;13.54;100.00
9474;BME280;8865;47.636;7.692;2023-11-19T10:14:59;98558.00;;;13.50;100.00
9474;BME280;8865;47.636;7.692;2023-11-19T10:17:29;98567.03;;;13.47;100.00
9474;BME280;8865;47.636;7.692;2023-11-19T10:20:04;98569.53;;;13.49;100.00
9474;BME280;8865;47.636;7.692;2023-11-19T10:22:54;98572.59;;;13.44;100.00
9474;BME280;8865;47.636;7.692;2023-11-19T10:27:53;98563.72;;;13.45;100.00
9474;BME280;8865;47.636;7.692;2023-11-19T10:30:27;98561.06;;;13.55;100.00
9474;BME280;8865;47.636;7.692;2023-11-19T10:33:11;98564.75;;;13.72;100.00
9474;BME280;8865;47.636;7.692;2023-11-19T10:35:53;98559.13;;;13.85;100.00
9474;BME280;8865;47.636;7.692;2023-11-19T10:38:20;98546.56;;;13.79;100.00
9474;BME280;8865;47.636;7.692;2023-11-19T10:40:49;98546.41;;;13.80;100.00
9474;BME280;8865;47.636;7.692;2023-11-19T10:43:15;98539.66;;;13.78;100.00
9474;BME280;8865;47.636;7.692;2023-11-19T10:45:41;98531.91;;;13.76;100.00
9474;BME280;8865;47.636;7.692;2023-11-19T10:48:07;98532.72;;;13.77;100.00
9474;BME280;8865;47.636;7.692;2023-11-19T10:50:37;98540.91;;;13.73;100.00
9474;BME280;8865;47.636;7.692;2023-11-19T10:53:04;98529.41;;;13.74;100.00
9474;BME280;8865;47.636;7.692;2023-11-19T10:55:32;98531.50;;;13.71;100.00
9474;BME280;8865;47.636;7.692;2023-11-19T10:58:03;98517.22;;;13.73;100.00
9474;BME280;8865;47.636;7.692;2023-11-19T11:00:30;98519.69;;;13.75;100.00
9474;BME280;8865;47.636;7.692;2023-11-19T11:03:11;98513.84;;;13.81;100.00
9474;BME280;8865;47.636;7.692;2023-11-19T11:05:37;98505.28;;;13.79;100.00
9474;BME280;8865;47.636;7.692;2023-11-19T11:08:06;98499.47;;;13.75;100.00
9474;BME280;8865;47.636;7.692;2023-11-19T11:10:36;98502.09;;;13.75;100.00
9474;BME280;8865;47.636;7.692;2023-11-19T11:13:05;98505.13;;;13.81;100.00
9474;BME280;8865;47.636;7.692;2023-11-19T11:15:32;98500.38;;;13.84;100.00
9474;BME280;8865;47.636;7.692;2023-11-19T11:18:02;98497.59;;;13.86;100.00
9474;BME280;8865;47.636;7.692;2023-11-19T11:20:32;98497.84;;;13.92;100.00
9474;BME280;8865;47.636;7.692;2023-11-19T11:39:40;98490.72;;;14.03;100.00
9474;BME280;8865;47.636;7.692;2023-11-19T11:44:57;98491.97;;;13.99;100.00
9474;BME280;8865;47.636;7.692;2023-11-19T11:47:23;98488.00;;;13.95;100.00
9474;BME280;8865;47.636;7.692;2023-11-19T11:49:51;98475.81;;;13.93;100.00
9474;BME280;8865;47.636;7.692;2023-11-19T11:52:18;98464.94;;;13.79;100.00
9474;BME280;8865;47.636;7.692;2023-11-19T11:54:44;98458.38;;;13.65;100.00
9474;BME280;8865;47.636;7.692;2023-11-19T11:57:11;98463.03;;;13.71;100.00
9474;BME280;8865;47.636;7.692;2023-11-19T12:02:15;98456.84;;;13.62;100.00
9474;BME280;8865;47.636;7.692;2023-11-19T12:04:46;98451.94;;;13.49;100.00
9474;BME280;8865;47.636;7.692;2023-11-19T12:07:14;98455.25;;;13.51;100.00
9474;BME280;8865;47.636;7.692;2023-11-19T12:09:42;98463.91;;;13.71;100.00
9474;BME280;8865;47.636;7.692;2023-11-19T12:12:26;98460.41;;;13.71;100.00
9474;BME280;8865;47.636;7.692;2023-11-19T12:20:05;98454.81;;;13.84;100.00
9474;BME280;8865;47.636;7.692;2023-11-19T12:22:38;98465.34;;;13.84;100.00
9474;BME280;8865;47.636;7.692;2023-11-19T12:25:09;98462.28;;;13.88;100.00
9474;BME280;8865;47.636;7.692;2023-11-19T12:27:36;98464.09;;;14.06;100.00
9474;BME280;8865;47.636;7.692;2023-11-19T12:30:03;98458.03;;;13.96;100.00
9474;BME280;8865;47.636;7.692;2023-11-19T12:32:40;98461.13;;;13.91;100.00
9474;BME280;8865;47.636;7.692;2023-11-19T12:35:08;98454.66;;;14.03;100.00
9474;BME280;8865;47.636;7.692;2023-11-19T12:37:48;98444.88;;;13.96;100.00
9474;BME280;8865;47.636;7.692;2023-11-19T12:40:24;98456.22;;;13.78;100.00
9474;BME280;8865;47.636;7.692;2023-11-19T12:42:52;98448.25;;;13.70;100.00
9474;BME280;8865;47.636;7.692;2023-11-19T12:45:19;98455.69;;;13.74;100.00
9474;BME280;8865;47.636;7.692;2023-11-19T12:47:47;98454.56;;;13.77;100.00
9474;BME280;8865;47.636;7.692;2023-11-19T12:50:15;98439.72;;;14.04;100.00
9474;BME280;8865;47.636;7.692;2023-11-19T12:52:43;98437.34;;;14.37;100.00
9474;BME280;8865;47.636;7.692;2023-11-19T12:57:52;98418.91;;;14.37;100.00
9474;BME280;8865;47.636;7.692;2023-11-19T13:00:25;98418.31;;;14.43;100.00
9474;BME280;8865;47.636;7.692;2023-11-19T13:02:53;98422.97;;;14.49;100.00
9474;BME280;8865;47.636;7.692;2023-11-19T13:05:29;98421.28;;;14.48;100.00
9474;BME280;8865;47.636;7.692;2023-11-19T13:08:06;98420.34;;;14.31;100.00
9474;BME280;8865;47.636;7.692;2023-11-19T13:10:49;98414.75;;;14.34;100.00
9474;BME280;8865;47.636;7.692;2023-11-19T13:13:16;98417.72;;;14.31;100.00
9474;BME280;8865;47.636;7.692;2023-11-19T13:15:43;98431.72;;;14.32;100.00
9474;BME280;8865;47.636;7.692;2023-11-19T13:18:10;98437.44;;;14.27;100.00
9474;BME280;8865;47.636;7.692;2023-11-19T13:20:37;98437.91;;;14.22;100.00
9474;BME280;8865;47.636;7.692;2023-11-19T13:23:04;98434.16;;;14.07;100.00
9474;BME280;8865;47.636;7.692;2023-11-19T13:25:31;98449.03;;;14.16;100.00
9474;BME280;8865;47.636;7.692;2023-11-19T13:27:58;98442.47;;;14.20;100.00
9474;BME280;8865;47.636;7.692;2023-11-19T13:30:24;98440.00;;;14.19;100.00
9474;BME280;8865;47.636;7.692;2023-11-19T13:32:52;98432.19;;;14.09;100.00
9474;BME280;8865;47.636;7.692;2023-11-19T13:35:18;98443.75;;;13.98;100.00
9474;BME280;8865;47.636;7.692;2023-11-19T13:37:45;98435.94;;;13.88;100.00
9474;BME280;8865;47.636;7.692;2023-11-19T13:40:11;98430.69;;;13.88;100.00
9474;BME280;8865;47.636;7.692;2023-11-19T13:42:41;98438.13;;;13.93;100.00
9474;BME280;8865;47.636;7.692;2023-11-19T13:45:12;98435.34;;;13.95;100.00
9474;BME280;8865;47.636;7.692;2023-11-19T13:47:43;98438.94;;;13.93;100.00
9474;BME280;8865;47.636;7.692;2023-11-19T13:50:13;98438.34;;;14.00;100.00